Terminal Aerodrome Forecast
Issued by NWS

Home | Current Version | Previous Version | Text Only | Print | Product List | Glossary On
Versions: 1 2 3 4 5 6 7 8 9 10 11 12 13 14 15 16 17 18 19 20 21 22 23 24 25
000
FTUS42 KTBW 011100
TAFLAL
TAF
KLAL 011123Z 0112/0212 VRB05KT P6SM VCSH SCT012 BKN030
      TEMPO 0112/0114 5SM -RA BR SCT005 BKN012
     FM011500 27005KT P6SM VCTS SCT025CB BKN080
     FM020000 VRB03KT P6SM FEW025 SCT250=

USA.gov is the U.S. government's official web portal to all federal, state and local government web resources and services.